Stellar, Texas
Current Conditions -  °F | °C
As of 1:15 AM on Saturday 29 Nov 2014 (Local Time) from K3T5 Reporting Station
Clear Clear  
Wind Chill: 58°   Ceiling: Unl
Heat Index: 58°   Visibility: 10mi
Dew Point: 56°   Wind: 5mph
Humidity: 96%   Direction: 190°S
Pressure: 30.08"   Gusts: NA
Location:  29.7805°N, 97.1131°W
Report Text: K3T5 290715Z AUTO 19004KT 10SM CLR 14/14 A3008 RMK AO2 T01420136
Loading
Personal Weather Stations






























Interactive Weather Map New forecast layout! Learn more

10-Day Weather Forecast

Advertisements
Track Severe Weather on mobile